createdAt,value
2022-10-19T00:00:13.735Z,12.16
2022-10-19T00:02:17.582Z,12.39
2022-10-19T00:04:20.308Z,12.50
2022-10-19T00:06:32.223Z,12.60
2022-10-19T00:08:34.858Z,12.42
2022-10-19T00:10:41.234Z,12.48
2022-10-19T00:12:43.833Z,12.48
2022-10-19T00:14:46.547Z,12.64
2022-10-19T00:16:51.809Z,12.51
2022-10-19T00:18:58.581Z,12.79
2022-10-19T00:21:07.030Z,12.72
2022-10-19T00:23:09.550Z,12.55
2022-10-19T00:25:12.037Z,12.78
2022-10-19T00:27:14.662Z,12.38
2022-10-19T00:29:17.881Z,12.07
2022-10-19T00:31:22.804Z,12.91
2022-10-19T00:33:27.212Z,12.69
2022-10-19T00:35:29.725Z,12.73
2022-10-19T00:37:32.256Z,12.78
2022-10-19T00:39:34.825Z,12.70
2022-10-19T00:42:11.901Z,12.81
2022-10-19T00:44:15.997Z,12.99
2022-10-19T00:46:18.514Z,12.49
2022-10-19T00:48:32.279Z,12.74
2022-10-19T00:50:34.944Z,12.90
2022-10-19T00:52:37.620Z,12.58
2022-10-19T00:54:42.569Z,12.93
2022-10-19T00:56:48.104Z,13.09
2022-10-19T00:58:50.749Z,12.69
2022-10-19T01:00:53.391Z,12.93
2022-10-19T01:02:57.344Z,12.85
2022-10-19T01:05:01.190Z,13.09
2022-10-19T01:08:41.246Z,12.93
2022-10-19T01:11:23.699Z,12.98
2022-10-19T01:14:14.622Z,13.00
2022-10-19T01:16:49.229Z,13.01
2022-10-19T01:19:19.024Z,12.73
2022-10-19T01:21:29.237Z,12.77
2022-10-19T01:23:59.848Z,13.13
2022-10-19T01:26:41.709Z,12.93
2022-10-19T01:29:52.766Z,13.01
2022-10-19T01:32:22.955Z,13.23
2022-10-19T01:35:08.970Z,13.23
2022-10-19T01:37:25.971Z,13.22
2022-10-19T01:39:56.330Z,13.22
2022-10-19T01:42:30.283Z,13.22
2022-10-19T01:44:43.320Z,13.25
2022-10-19T01:47:20.684Z,13.12
2022-10-19T01:49:49.560Z,13.18
2022-10-19T01:52:00.860Z,13.07
2022-10-19T01:54:07.303Z,13.32
2022-10-19T01:56:11.560Z,13.33
2022-10-19T01:58:20.321Z,13.11
2022-10-19T02:00:24.565Z,13.32
2022-10-19T02:02:28.142Z,12.88
2022-10-19T02:04:32.307Z,13.33
2022-10-19T02:06:36.014Z,13.16
2022-10-19T02:08:45.051Z,13.17
2022-10-19T02:10:48.715Z,13.15
2022-10-19T02:12:53.258Z,13.01
2022-10-19T02:14:59.655Z,13.35
2022-10-19T02:17:07.560Z,13.37
2022-10-19T02:19:13.266Z,12.94
2022-10-19T02:21:15.897Z,13.15
2022-10-19T02:23:24.275Z,13.28
2022-10-19T02:25:27.171Z,12.50
2022-10-19T02:27:29.949Z,13.20
2022-10-19T02:29:37.789Z,13.27
2022-10-19T02:31:40.326Z,12.10
2022-10-19T02:33:42.883Z,13.00
2022-10-19T02:35:45.737Z,12.96
2022-10-19T02:37:48.342Z,13.09
2022-10-19T02:39:50.944Z,12.43
2022-10-19T02:42:44.430Z,12.96
2022-10-19T02:45:01.425Z,12.93
2022-10-19T02:47:13.544Z,12.78
2022-10-19T02:49:16.523Z,12.95
2022-10-19T02:51:39.122Z,12.81
2022-10-19T02:53:42.651Z,12.80
2022-10-19T02:55:48.414Z,12.83
2022-10-19T02:57:50.954Z,12.67
2022-10-19T02:59:53.850Z,12.89
2022-10-19T03:01:56.444Z,12.81
2022-10-19T03:03:59.028Z,12.87
2022-10-19T03:06:01.522Z,12.95
2022-10-19T03:08:04.423Z,12.83
2022-10-19T03:10:07.361Z,12.87
2022-10-19T03:12:10.999Z,12.63
2022-10-19T03:14:13.538Z,12.71
2022-10-19T03:16:16.205Z,12.85
2022-10-19T03:18:18.736Z,12.66
2022-10-19T03:20:21.259Z,12.63
2022-10-19T03:22:23.763Z,12.91
2022-10-19T03:24:26.593Z,12.74
2022-10-19T03:26:29.132Z,12.88
2022-10-19T03:28:32.236Z,12.80
2022-10-19T03:30:34.821Z,12.64
2022-10-19T03:32:37.326Z,12.75
2022-10-19T03:34:39.894Z,12.43
2022-10-19T03:36:42.864Z,12.65
2022-10-19T03:38:45.399Z,12.68
2022-10-19T03:40:47.933Z,12.00
2022-10-19T03:42:50.480Z,12.60
2022-10-19T03:44:53.033Z,12.44
2022-10-19T03:46:59.097Z,12.66
2022-10-19T03:49:01.739Z,12.38
2022-10-19T03:51:11.930Z,12.79
2022-10-19T03:53:15.242Z,12.74
2022-10-19T03:55:18.394Z,12.62
2022-10-19T03:57:20.896Z,12.54
2022-10-19T04:00:44.925Z,12.84
2022-10-19T04:02:47.496Z,12.62
2022-10-19T04:04:50.038Z,12.61
2022-10-19T04:06:53.979Z,12.64
2022-10-19T04:08:57.187Z,12.80
2022-10-19T04:11:02.246Z,12.66
2022-10-19T04:13:04.795Z,12.75
2022-10-19T04:15:08.032Z,12.45
2022-10-19T04:17:11.187Z,12.68
2022-10-19T04:19:15.898Z,12.87
2022-10-19T04:21:33.961Z,12.68
2022-10-19T04:23:36.703Z,12.41
2022-10-19T04:25:39.696Z,12.69
2022-10-19T04:27:42.222Z,12.71
2022-10-19T04:29:44.796Z,12.69
2022-10-19T04:31:50.147Z,12.83
2022-10-19T04:33:52.753Z,12.65
2022-10-19T04:36:00.053Z,12.72
2022-10-19T04:38:02.705Z,12.71
2022-10-19T04:40:06.258Z,12.66
2022-10-19T04:42:08.939Z,12.89
2022-10-19T04:44:11.674Z,12.51
2022-10-19T04:46:18.301Z,12.80
2022-10-19T04:48:20.835Z,12.92
2022-10-19T04:50:27.391Z,12.93
2022-10-19T04:52:31.405Z,12.62
2022-10-19T04:54:34.929Z,12.65
2022-10-19T04:56:37.645Z,12.76
2022-10-19T04:58:40.294Z,12.90
2022-10-19T05:00:42.927Z,13.01
2022-10-19T05:02:46.091Z,13.05
2022-10-19T05:04:48.816Z,12.98
2022-10-19T05:06:51.392Z,12.68
2022-10-19T05:08:54.168Z,13.04
2022-10-19T05:11:10.168Z,12.97
2022-10-19T05:13:12.702Z,13.05
2022-10-19T05:15:15.301Z,12.75
2022-10-19T05:17:17.888Z,12.84
2022-10-19T05:19:20.415Z,12.94
2022-10-19T05:21:23.181Z,12.89
2022-10-19T05:23:26.244Z,12.92
2022-10-19T05:25:28.834Z,12.99
2022-10-19T05:27:31.480Z,12.41
2022-10-19T05:30:30.617Z,13.04
2022-10-19T05:32:33.157Z,12.89
2022-10-19T05:34:35.692Z,12.60
2022-10-19T05:36:40.057Z,13.12
2022-10-19T05:38:44.010Z,13.00
2022-10-19T05:40:51.538Z,13.19
2022-10-19T05:42:56.326Z,13.12
2022-10-19T05:44:58.857Z,13.12
2022-10-19T05:47:02.326Z,13.20
2022-10-19T05:49:15.900Z,13.01
2022-10-19T05:51:21.191Z,12.59
2022-10-19T05:53:23.718Z,12.79
2022-10-19T05:55:26.266Z,12.98
2022-10-19T05:57:37.882Z,13.07
2022-10-19T05:59:41.018Z,12.94
2022-10-19T06:01:44.743Z,12.91
2022-10-19T06:03:55.463Z,13.27
2022-10-19T06:05:58.593Z,13.24
2022-10-19T06:08:02.346Z,13.27
2022-10-19T06:10:05.449Z,12.95
2022-10-19T06:12:08.020Z,13.07
2022-10-19T06:14:16.066Z,13.24
2022-10-19T06:16:20.338Z,13.04
2022-10-19T06:18:25.752Z,13.19
2022-10-19T06:20:29.545Z,12.66
2022-10-19T06:22:32.089Z,13.07
2022-10-19T06:24:34.842Z,13.22
2022-10-19T06:26:37.557Z,13.37
2022-10-19T06:28:43.665Z,13.43
2022-10-19T06:30:46.314Z,13.28
2022-10-19T06:32:49.104Z,13.07
2022-10-19T06:35:00.838Z,13.19
2022-10-19T06:37:03.521Z,13.22
2022-10-19T06:39:06.021Z,13.25
2022-10-19T06:41:08.630Z,13.49
2022-10-19T06:43:11.993Z,13.61
2022-10-19T06:45:14.590Z,13.65
2022-10-19T06:47:17.120Z,13.67
2022-10-19T06:49:19.678Z,13.75
2022-10-19T06:51:23.188Z,13.97
2022-10-19T06:53:27.051Z,14.10
2022-10-19T06:55:29.762Z,13.88
2022-10-19T06:57:32.564Z,13.92
2022-10-19T06:59:35.281Z,13.72
2022-10-19T07:01:37.829Z,14.04
2022-10-19T07:03:41.410Z,14.18
2022-10-19T07:05:57.659Z,14.14
2022-10-19T07:08:00.595Z,14.23
2022-10-19T07:10:03.820Z,14.22
2022-10-19T07:12:06.639Z,13.92
2022-10-19T07:14:09.615Z,13.89
2022-10-19T07:16:19.702Z,14.37
2022-10-19T07:18:24.150Z,14.40
2022-10-19T07:20:26.724Z,14.37
2022-10-19T07:22:29.297Z,14.06
2022-10-19T07:24:31.837Z,14.30
2022-10-19T07:26:35.279Z,14.41
2022-10-19T07:28:39.540Z,14.73
2022-10-19T07:30:42.557Z,14.64
2022-10-19T07:32:47.112Z,14.25
2022-10-19T07:34:50.528Z,14.73
2022-10-19T07:36:54.912Z,14.73
2022-10-19T07:38:57.540Z,14.93
2022-10-19T07:41:23.326Z,14.95
2022-10-19T07:43:25.908Z,14.87
2022-10-19T07:45:28.719Z,14.67
2022-10-19T07:47:34.827Z,15.15
2022-10-19T07:49:38.378Z,15.32
2022-10-19T07:51:41.262Z,15.15
2022-10-19T07:53:45.818Z,15.20
2022-10-19T07:55:48.505Z,15.15
2022-10-19T07:57:51.219Z,15.32
2022-10-19T07:59:54.868Z,15.54
2022-10-19T08:01:57.480Z,15.46
2022-10-19T08:06:38.411Z,15.52
2022-10-19T08:08:42.144Z,15.69
2022-10-19T08:10:44.645Z,15.46
2022-10-19T08:12:47.190Z,15.95
2022-10-19T08:14:49.753Z,15.78
2022-10-19T08:16:52.449Z,15.63
2022-10-19T08:19:01.764Z,16.06
2022-10-19T08:21:04.340Z,15.83
2022-10-19T08:23:07.052Z,16.01
2022-10-19T08:25:09.605Z,15.87
2022-10-19T08:27:12.239Z,15.95
2022-10-19T08:29:41.158Z,16.05
2022-10-19T08:31:45.294Z,16.03
2022-10-19T08:33:50.574Z,15.84
2022-10-19T08:35:56.775Z,16.13
2022-10-19T08:37:59.338Z,16.04
2022-10-19T08:43:00.981Z,15.89
2022-10-19T08:45:34.490Z,16.07
2022-10-19T08:48:00.647Z,16.07
2022-10-19T08:50:15.969Z,15.63
2022-10-19T08:52:24.335Z,16.03
2022-10-19T08:54:41.918Z,16.06
2022-10-19T08:56:55.651Z,16.09
2022-10-19T08:59:07.434Z,16.20
2022-10-19T09:01:38.137Z,16.28
2022-10-19T09:03:59.982Z,16.37
2022-10-19T09:06:12.788Z,16.33
2022-10-19T09:08:33.978Z,16.07
2022-10-19T09:10:41.368Z,16.28
2022-10-19T09:13:07.534Z,16.01
2022-10-19T09:15:19.582Z,16.18
2022-10-19T09:17:25.689Z,16.27
2022-10-19T09:19:31.743Z,16.41
2022-10-19T09:21:56.739Z,16.58
2022-10-19T09:24:05.614Z,16.60
2022-10-19T09:26:19.008Z,16.70
2022-10-19T09:28:36.626Z,16.74
2022-10-19T09:30:44.879Z,16.47
2022-10-19T09:32:51.448Z,16.33
2022-10-19T09:35:13.814Z,16.22
2022-10-19T09:37:24.818Z,16.19
2022-10-19T09:39:31.402Z,15.64
2022-10-19T09:41:34.521Z,15.96
2022-10-19T09:43:39.451Z,16.35
2022-10-19T09:46:01.087Z,16.28
2022-10-19T09:48:16.631Z,16.31
2022-10-19T09:50:25.428Z,16.42
2022-10-19T09:52:42.121Z,16.69
2022-10-19T09:54:45.041Z,16.73
2022-10-19T09:56:55.222Z,16.07
2022-10-19T09:59:00.490Z,16.70
2022-10-19T10:01:03.717Z,16.29
2022-10-19T10:03:07.742Z,15.97
2022-10-19T10:05:16.533Z,16.91
2022-10-19T10:07:27.819Z,16.51
2022-10-19T10:09:56.613Z,16.49
2022-10-19T10:12:02.644Z,16.48
2022-10-19T10:14:31.845Z,16.59
2022-10-19T10:16:36.365Z,16.65
2022-10-19T10:19:04.048Z,16.93
2022-10-19T10:21:25.427Z,17.03
2022-10-19T10:23:34.289Z,17.05
2022-10-19T10:25:37.350Z,16.99
2022-10-19T10:27:40.357Z,16.98
2022-10-19T10:32:13.263Z,17.15
2022-10-19T10:34:51.964Z,16.99
2022-10-19T10:36:59.649Z,17.12
2022-10-19T10:39:26.668Z,17.16
2022-10-19T10:41:31.173Z,17.14
2022-10-19T10:43:36.730Z,17.08
2022-10-19T10:45:53.089Z,16.80
2022-10-19T10:47:56.445Z,16.99
2022-10-19T10:50:05.901Z,16.83
2022-10-19T10:52:14.429Z,16.66
2022-10-19T10:54:27.730Z,16.92
2022-10-19T10:56:33.817Z,16.63
2022-10-19T10:58:56.380Z,16.40
2022-10-19T11:01:07.636Z,16.53
2022-10-19T11:03:31.956Z,16.35
2022-10-19T11:05:58.701Z,16.46
2022-10-19T11:08:12.241Z,16.86
2022-10-19T11:10:23.882Z,17.07
2022-10-19T11:12:59.347Z,17.03
2022-10-19T11:15:23.500Z,17.01
2022-10-19T11:17:31.552Z,16.90
2022-10-19T11:19:36.707Z,17.24
2022-10-19T11:22:10.397Z,17.08
2022-10-19T11:24:26.979Z,17.27
2022-10-19T11:26:43.961Z,17.32
2022-10-19T11:29:14.020Z,17.36
2022-10-19T11:31:30.208Z,17.35
2022-10-19T11:34:25.923Z,17.21
2022-10-19T11:36:55.288Z,16.90
2022-10-19T11:39:32.770Z,16.90
2022-10-19T11:41:46.745Z,16.83
2022-10-19T11:44:22.504Z,17.06
2022-10-19T11:46:52.719Z,17.16
2022-10-19T11:49:35.645Z,17.31
2022-10-19T11:51:59.541Z,17.13
2022-10-19T11:54:20.731Z,17.22
2022-10-19T11:56:58.029Z,17.16
2022-10-19T11:59:19.201Z,17.06
2022-10-19T12:01:37.801Z,16.54
2022-10-19T12:03:43.656Z,16.91
2022-10-19T12:06:25.930Z,16.92
2022-10-19T12:08:41.324Z,17.07
2022-10-19T12:11:01.421Z,17.01
2022-10-19T12:13:11.026Z,16.70
2022-10-19T12:15:44.961Z,17.05
2022-10-19T12:18:10.398Z,17.07
2022-10-19T12:20:44.798Z,16.85
2022-10-19T12:22:49.548Z,16.94
2022-10-19T12:24:55.541Z,16.87
2022-10-19T12:26:59.453Z,16.36
2022-10-19T12:29:14.822Z,16.74
2022-10-19T12:31:18.776Z,16.68
2022-10-19T12:33:47.354Z,16.56
2022-10-19T12:36:23.843Z,16.56
2022-10-19T12:38:49.482Z,16.58
2022-10-19T12:41:05.119Z,16.86
2022-10-19T12:43:34.084Z,16.90
2022-10-19T12:46:05.555Z,16.89
2022-10-19T12:48:14.496Z,17.06
2022-10-19T12:50:48.830Z,17.22
2022-10-19T12:52:52.924Z,16.96
2022-10-19T12:55:16.105Z,17.52
2022-10-19T12:57:27.981Z,17.20
2022-10-19T12:59:34.737Z,17.65
2022-10-19T13:01:37.826Z,17.73
2022-10-19T13:03:46.981Z,17.64
2022-10-19T13:05:58.492Z,17.55
2022-10-19T13:08:06.119Z,17.29
2022-10-19T13:10:22.163Z,17.35
2022-10-19T13:12:33.167Z,17.30
2022-10-19T13:15:02.972Z,17.07
2022-10-19T13:17:05.798Z,16.99
2022-10-19T13:19:14.251Z,17.08
2022-10-19T13:21:53.948Z,16.87
2022-10-19T13:24:25.796Z,17.09
2022-10-19T13:26:34.276Z,17.19
2022-10-19T13:28:39.074Z,17.00
2022-10-19T13:30:42.315Z,17.16
2022-10-19T13:32:45.711Z,17.06
2022-10-19T13:34:48.829Z,16.85
2022-10-19T13:37:02.815Z,17.25
2022-10-19T13:39:12.291Z,17.15
2022-10-19T13:41:46.485Z,17.17
2022-10-19T13:44:15.821Z,17.17
2022-10-19T13:46:43.809Z,17.07
2022-10-19T13:49:01.189Z,17.03
2022-10-19T13:51:30.722Z,16.91
2022-10-19T13:54:36.854Z,16.70
2022-10-19T13:56:59.167Z,16.51
2022-10-19T13:59:51.585Z,16.32
2022-10-19T14:03:09.357Z,16.15
2022-10-19T14:06:07.068Z,15.97
2022-10-19T14:08:54.231Z,15.72
2022-10-19T14:11:27.166Z,15.69
2022-10-19T14:13:30.511Z,15.58
2022-10-19T14:15:35.085Z,15.46
2022-10-19T14:17:42.522Z,15.44
2022-10-19T14:19:52.620Z,15.40
2022-10-19T14:21:59.443Z,15.35
2022-10-19T14:24:34.839Z,15.29
2022-10-19T14:26:38.615Z,14.99
2022-10-19T14:28:43.049Z,15.35
2022-10-19T14:31:10.374Z,15.00
2022-10-19T14:33:18.878Z,15.22
2022-10-19T14:35:41.534Z,15.29
2022-10-19T14:37:44.776Z,15.13
2022-10-19T14:40:49.049Z,15.09
2022-10-19T14:42:51.641Z,15.19
2022-10-19T14:45:01.939Z,15.18
2022-10-19T14:47:18.289Z,15.31
2022-10-19T14:49:20.882Z,15.24
2022-10-19T14:51:46.875Z,15.16
2022-10-19T14:53:56.426Z,15.09
2022-10-19T14:56:09.890Z,15.10
2022-10-19T14:58:20.264Z,15.18
2022-10-19T15:00:24.076Z,14.93
2022-10-19T15:02:39.113Z,15.01
2022-10-19T15:04:43.616Z,14.91
2022-10-19T15:06:46.456Z,14.76
2022-10-19T15:09:04.441Z,14.77
2022-10-19T15:11:40.344Z,14.70
2022-10-19T15:13:43.518Z,13.73
2022-10-19T15:15:54.629Z,14.73
2022-10-19T15:18:00.579Z,14.62
2022-10-19T15:20:04.757Z,14.54
2022-10-19T15:22:22.497Z,14.33
2022-10-19T15:24:28.266Z,14.36
2022-10-19T15:26:31.310Z,14.27
2022-10-19T15:28:41.605Z,14.16
2022-10-19T15:30:44.519Z,13.72
2022-10-19T15:32:51.351Z,13.84
2022-10-19T15:34:53.881Z,13.80
2022-10-19T15:37:01.630Z,13.85
2022-10-19T15:39:24.712Z,13.76
2022-10-19T15:41:32.705Z,13.67
2022-10-19T15:43:45.320Z,13.63
2022-10-19T15:45:47.830Z,13.18
2022-10-19T15:48:10.311Z,13.52
2022-10-19T15:50:34.239Z,13.35
2022-10-19T15:52:36.882Z,12.97
2022-10-19T15:54:39.460Z,13.30
2022-10-19T15:56:51.220Z,13.24
2022-10-19T15:58:57.263Z,13.02
2022-10-19T16:00:59.812Z,12.92
2022-10-19T16:03:03.336Z,12.91
2022-10-19T16:07:27.431Z,13.00
2022-10-19T16:09:30.171Z,12.85
2022-10-19T16:11:34.557Z,12.60
2022-10-19T16:13:37.042Z,12.66
2022-10-19T16:15:39.833Z,12.45
2022-10-19T16:17:44.837Z,12.04
2022-10-19T16:19:47.704Z,12.35
2022-10-19T16:21:50.547Z,12.32
2022-10-19T16:23:53.378Z,12.32
2022-10-19T16:25:56.444Z,12.27
2022-10-19T16:27:58.949Z,12.31
2022-10-19T16:30:06.934Z,12.32
2022-10-19T16:32:09.624Z,12.28
2022-10-19T16:34:12.273Z,11.74
2022-10-19T16:36:14.941Z,11.56
2022-10-19T16:38:18.558Z,12.24
2022-10-19T16:40:21.329Z,12.24
2022-10-19T16:42:29.654Z,11.52
2022-10-19T16:44:35.227Z,11.86
2022-10-19T16:46:37.764Z,11.84
2022-10-19T16:48:40.340Z,11.52
2022-10-19T16:52:46.597Z,11.94
2022-10-19T16:54:49.234Z,11.65
2022-10-19T16:56:51.801Z,11.60
2022-10-19T16:58:58.120Z,11.71
2022-10-19T17:01:24.645Z,11.73
2022-10-19T17:03:28.811Z,11.84
2022-10-19T17:05:31.386Z,11.51
2022-10-19T17:07:33.926Z,11.67
2022-10-19T17:09:41.902Z,11.55
2022-10-19T17:11:45.284Z,11.85
2022-10-19T17:13:50.168Z,11.88
2022-10-19T17:15:53.082Z,11.31
2022-10-19T17:17:58.023Z,11.97
2022-10-19T17:20:00.603Z,11.96
2022-10-19T17:22:05.568Z,12.02
2022-10-19T17:24:16.822Z,12.15
2022-10-19T17:29:02.038Z,12.26
2022-10-19T17:31:11.488Z,12.17
2022-10-19T17:33:14.281Z,11.82
2022-10-19T17:35:17.124Z,11.90
2022-10-19T17:37:20.044Z,12.19
2022-10-19T17:39:27.453Z,12.21
2022-10-19T17:41:32.967Z,12.24
2022-10-19T17:43:38.334Z,12.26
2022-10-19T17:45:41.345Z,11.88
2022-10-19T17:47:43.881Z,11.96
2022-10-19T17:49:47.325Z,11.64
2022-10-19T17:51:52.763Z,12.25
2022-10-19T17:54:02.257Z,12.26
2022-10-19T17:56:07.163Z,12.06
2022-10-19T17:58:09.731Z,11.82
2022-10-19T18:00:13.390Z,11.71
2022-10-19T18:02:15.916Z,11.84
2022-10-19T18:04:18.498Z,11.58
2022-10-19T18:06:31.844Z,11.77
2022-10-19T18:08:39.805Z,11.84
2022-10-19T18:11:09.943Z,11.69
2022-10-19T18:13:12.502Z,11.66
2022-10-19T18:15:15.118Z,11.44
2022-10-19T18:17:17.737Z,11.59
2022-10-19T18:19:20.385Z,11.90
2022-10-19T18:21:30.210Z,11.76
2022-10-19T18:23:33.134Z,11.92
2022-10-19T18:25:53.537Z,11.81
2022-10-19T18:27:57.370Z,11.73
2022-10-19T18:29:59.904Z,11.47
2022-10-19T18:32:02.606Z,11.84
2022-10-19T18:34:08.063Z,11.46
2022-10-19T18:36:11.318Z,11.67
2022-10-19T18:38:13.901Z,11.63
2022-10-19T18:40:16.516Z,11.42
2022-10-19T18:42:19.048Z,11.51
2022-10-19T18:44:25.511Z,11.55
2022-10-19T18:46:33.721Z,11.59
2022-10-19T18:48:38.366Z,11.51
2022-10-19T18:50:42.044Z,11.20
2022-10-19T18:52:44.544Z,11.12
2022-10-19T18:54:47.171Z,11.14
2022-10-19T18:56:49.740Z,11.17
2022-10-19T18:59:01.145Z,11.18
2022-10-19T19:01:15.223Z,11.19
2022-10-19T19:03:20.792Z,11.12
2022-10-19T19:05:23.474Z,11.10
2022-10-19T19:07:28.049Z,10.88
2022-10-19T19:09:30.536Z,10.81
2022-10-19T19:11:36.907Z,10.93
2022-10-19T19:13:41.018Z,10.64
2022-10-19T19:15:43.536Z,10.56
2022-10-19T19:17:46.077Z,10.59
2022-10-19T19:19:48.641Z,10.48
2022-10-19T19:21:51.391Z,10.64
2022-10-19T19:23:56.100Z,10.59
2022-10-19T19:25:58.832Z,10.30
2022-10-19T19:28:01.342Z,10.32
2022-10-19T19:30:04.859Z,10.35
2022-10-19T19:32:07.426Z,10.20
2022-10-19T19:34:10.114Z,10.31
2022-10-19T19:36:16.764Z,10.32
2022-10-19T19:38:19.302Z,10.17
2022-10-19T19:40:22.009Z,9.90
2022-10-19T19:42:27.707Z,9.87
2022-10-19T19:44:30.629Z,9.85
2022-10-19T19:46:33.254Z,9.82
2022-10-19T19:48:37.220Z,10.08
2022-10-19T19:50:39.746Z,10.02
2022-10-19T19:52:42.509Z,9.34
2022-10-19T19:54:45.094Z,9.87
2022-10-19T19:56:53.040Z,9.83
2022-10-19T19:58:58.229Z,9.88
2022-10-19T20:01:12.158Z,9.54
2022-10-19T20:03:17.470Z,9.47
2022-10-19T20:05:20.257Z,9.46
2022-10-19T20:07:22.854Z,9.42
2022-10-19T20:09:27.088Z,9.57
2022-10-19T20:11:30.483Z,9.68
2022-10-19T20:13:34.048Z,9.62
2022-10-19T20:15:40.087Z,9.38
2022-10-19T20:17:44.630Z,9.49
2022-10-19T20:19:47.137Z,9.33
2022-10-19T20:21:49.668Z,8.90
2022-10-19T20:24:11.332Z,9.26
2022-10-19T20:26:23.152Z,9.45
2022-10-19T20:28:37.532Z,9.25
2022-10-19T20:30:40.218Z,9.16
2022-10-19T20:32:42.776Z,8.56
2022-10-19T20:34:45.349Z,8.93
2022-10-19T20:38:04.986Z,9.16
2022-10-19T20:40:08.996Z,9.06
2022-10-19T20:42:11.644Z,8.19
2022-10-19T20:44:14.457Z,8.97
2022-10-19T20:46:23.287Z,9.01
2022-10-19T20:48:25.840Z,8.87
2022-10-19T20:50:28.500Z,8.55
2022-10-19T20:52:31.042Z,8.33
2022-10-19T20:54:33.694Z,8.70
2022-10-19T20:56:38.818Z,8.76
2022-10-19T20:58:43.518Z,7.96
2022-10-19T21:00:46.204Z,8.28
2022-10-19T21:02:48.761Z,8.08
2022-10-19T21:04:51.302Z,8.57
2022-10-19T21:06:53.994Z,8.62
2022-10-19T21:08:58.123Z,8.63
2022-10-19T21:11:01.421Z,8.81
2022-10-19T21:13:03.929Z,8.59
2022-10-19T21:15:07.061Z,8.69
2022-10-19T21:17:09.586Z,8.57
2022-10-19T21:19:16.170Z,8.49
2022-10-19T21:21:59.493Z,8.62
2022-10-19T21:24:32.300Z,8.63
2022-10-19T21:26:36.657Z,8.57
2022-10-19T21:28:40.126Z,8.40
2022-10-19T21:30:42.667Z,8.24
2022-10-19T21:32:45.208Z,8.20
2022-10-19T21:34:47.774Z,8.23
2022-10-19T21:36:50.984Z,8.16
2022-10-19T21:39:20.980Z,8.34
2022-10-19T21:41:26.417Z,8.40
2022-10-19T21:43:31.192Z,8.35
2022-10-19T21:45:38.128Z,8.16
2022-10-19T21:47:40.621Z,8.01
2022-10-19T21:49:43.155Z,7.94
2022-10-19T21:51:55.220Z,8.16
2022-10-19T21:53:58.245Z,8.14
2022-10-19T21:56:00.818Z,7.60
2022-10-19T21:58:05.073Z,8.09
2022-10-19T22:00:08.140Z,7.91
2022-10-19T22:02:15.495Z,7.93
2022-10-19T22:04:18.453Z,7.86
2022-10-19T22:06:21.067Z,7.65
2022-10-19T22:08:24.842Z,7.64
2022-10-19T22:10:27.406Z,7.75
2022-10-19T22:12:29.977Z,7.89
2022-10-19T22:14:32.496Z,7.83
2022-10-19T22:16:36.838Z,8.09
2022-10-19T22:18:40.258Z,8.11
2022-10-19T22:20:42.760Z,7.93
2022-10-19T22:22:45.372Z,8.10
2022-10-19T22:24:47.909Z,7.96
2022-10-19T22:26:50.972Z,8.15
2022-10-19T22:28:57.050Z,7.79
2022-10-19T22:30:59.655Z,7.39
2022-10-19T22:33:02.232Z,7.93
2022-10-19T22:35:06.047Z,8.02
2022-10-19T22:37:35.206Z,8.09
2022-10-19T22:39:37.839Z,8.02
2022-10-19T22:41:40.376Z,7.91
2022-10-19T22:43:42.952Z,7.31
2022-10-19T22:45:50.120Z,7.59
2022-10-19T22:47:52.670Z,7.88
2022-10-19T22:49:55.282Z,7.92
2022-10-19T22:51:57.868Z,7.84
2022-10-19T22:54:00.561Z,7.54
2022-10-19T22:56:03.285Z,7.35
2022-10-19T22:58:07.577Z,7.59
2022-10-19T23:00:11.089Z,7.38
2022-10-19T23:02:13.686Z,6.95
2022-10-19T23:04:16.241Z,6.88
2022-10-19T23:06:18.923Z,7.34
2022-10-19T23:08:21.468Z,7.19
2022-10-19T23:10:24.284Z,7.41
2022-10-19T23:12:26.855Z,7.04
2022-10-19T23:14:29.512Z,7.33
2022-10-19T23:16:32.093Z,7.28
2022-10-19T23:18:37.200Z,7.42
2022-10-19T23:20:40.231Z,7.13
2022-10-19T23:22:42.781Z,7.41
2022-10-19T23:24:45.388Z,7.11
2022-10-19T23:26:48.002Z,7.27
2022-10-19T23:28:50.812Z,7.38
2022-10-19T23:30:53.375Z,7.11
2022-10-19T23:32:55.932Z,7.16
2022-10-19T23:34:58.468Z,7.08
2022-10-19T23:37:01.050Z,6.61
2022-10-19T23:39:03.809Z,7.07
2022-10-19T23:41:07.002Z,7.06
2022-10-19T23:43:09.582Z,6.14
2022-10-19T23:45:25.212Z,7.04
2022-10-19T23:47:28.713Z,6.84
2022-10-19T23:49:32.540Z,7.03
2022-10-19T23:51:35.053Z,7.07
2022-10-19T23:53:41.809Z,6.65
2022-10-19T23:55:44.315Z,6.75
2022-10-19T23:58:12.573Z,6.79
